Bissett, Canada
Current Conditions -  °F | °C
As of 9:00 PM on Monday 20 Oct 2014 (Local Time) from CYRL Reporting Station
Overcast Overcast  
Wind Chill: 34°   Ceiling: 1400
Heat Index: 37°   Visibility: 15mi
Dew Point: 34°   Wind: 5mph
Humidity: 87%   Direction: 110°ESE
Pressure: 30.13"   Gusts: NA
Location:  51.02°N, 95.67°W
Report Text: CYRL 210200Z 11004KT 15SM OVC014 03/01 A3013 RMK SC8 LAST STFD OBS/ NEXT 21 0900UTC SLP221
Loading
Personal Weather Stations






























Interactive Weather Map New forecast layout! Learn more

10-Day Weather Forecast

Advertisements
Track Severe Weather on mobile